sensor_id;sensor_type;location;lat;lon;timestamp;temperature;humidity
25923;DHT22;13725;51.170;4.442;2023-04-24T00:01:48;10.20;99.90
25923;DHT22;13725;51.170;4.442;2023-04-24T00:04:14;10.20;99.90
25923;DHT22;13725;51.170;4.442;2023-04-24T00:06:42;10.10;99.90
25923;DHT22;13725;51.170;4.442;2023-04-24T00:09:11;10.10;99.90
25923;DHT22;13725;51.170;4.442;2023-04-24T00:11:37;10.10;99.90
25923;DHT22;13725;51.170;4.442;2023-04-24T00:14:03;10.10;99.90
25923;DHT22;13725;51.170;4.442;2023-04-24T00:16:29;10.20;99.90
25923;DHT22;13725;51.170;4.442;2023-04-24T00:18:55;10.20;99.90
25923;DHT22;13725;51.170;4.442;2023-04-24T00:21:20;10.20;99.90
25923;DHT22;13725;51.170;4.442;2023-04-24T00:23:47;10.30;99.90
25923;DHT22;13725;51.170;4.442;2023-04-24T00:26:13;10.20;99.90
25923;DHT22;13725;51.170;4.442;2023-04-24T00:28:39;10.30;99.90
25923;DHT22;13725;51.170;4.442;2023-04-24T00:31:05;10.30;99.90
25923;DHT22;13725;51.170;4.442;2023-04-24T00:33:31;10.30;99.90
25923;DHT22;13725;51.170;4.442;2023-04-24T00:35:57;10.40;99.90
25923;DHT22;13725;51.170;4.442;2023-04-24T00:38:23;10.40;99.90
25923;DHT22;13725;51.170;4.442;2023-04-24T00:40:49;10.40;99.90
25923;DHT22;13725;51.170;4.442;2023-04-24T00:43:19;10.40;99.90
25923;DHT22;13725;51.170;4.442;2023-04-24T00:45:46;10.40;99.90
25923;DHT22;13725;51.170;4.442;2023-04-24T00:48:12;10.40;99.90
25923;DHT22;13725;51.170;4.442;2023-04-24T00:50:39;10.40;99.90
25923;DHT22;13725;51.170;4.442;2023-04-24T00:53:05;10.40;99.90
25923;DHT22;13725;51.170;4.442;2023-04-24T00:55:31;10.40;99.90
25923;DHT22;13725;51.170;4.442;2023-04-24T00:57:57;10.40;99.90
25923;DHT22;13725;51.170;4.442;2023-04-24T01:00:25;10.30;99.90
25923;DHT22;13725;51.170;4.442;2023-04-24T01:02:51;10.30;99.90
25923;DHT22;13725;51.170;4.442;2023-04-24T01:05:19;10.30;99.90
25923;DHT22;13725;51.170;4.442;2023-04-24T01:07:46;10.30;99.90
25923;DHT22;13725;51.170;4.442;2023-04-24T01:10:14;10.20;99.90
25923;DHT22;13725;51.170;4.442;2023-04-24T01:12:40;10.20;99.90
25923;DHT22;13725;51.170;4.442;2023-04-24T01:15:07;10.20;99.90
25923;DHT22;13725;51.170;4.442;2023-04-24T01:17:34;10.20;99.90
25923;DHT22;13725;51.170;4.442;2023-04-24T01:20:00;10.00;99.90
25923;DHT22;13725;51.170;4.442;2023-04-24T01:22:26;10.00;99.90
25923;DHT22;13725;51.170;4.442;2023-04-24T01:24:53;10.00;99.90
25923;DHT22;13725;51.170;4.442;2023-04-24T01:27:19;10.00;99.90
25923;DHT22;13725;51.170;4.442;2023-04-24T01:29:46;9.90;99.90
25923;DHT22;13725;51.170;4.442;2023-04-24T01:32:13;9.90;99.90
25923;DHT22;13725;51.170;4.442;2023-04-24T01:34:40;10.00;99.90
25923;DHT22;13725;51.170;4.442;2023-04-24T01:37:06;10.00;99.90
25923;DHT22;13725;51.170;4.442;2023-04-24T01:39:32;10.10;99.90
25923;DHT22;13725;51.170;4.442;2023-04-24T01:41:59;10.10;99.90
25923;DHT22;13725;51.170;4.442;2023-04-24T01:44:28;10.10;99.90
25923;DHT22;13725;51.170;4.442;2023-04-24T01:46:55;10.20;99.90
25923;DHT22;13725;51.170;4.442;2023-04-24T01:49:21;10.20;99.90
25923;DHT22;13725;51.170;4.442;2023-04-24T01:51:46;10.30;99.90
25923;DHT22;13725;51.170;4.442;2023-04-24T01:54:12;10.30;99.90
25923;DHT22;13725;51.170;4.442;2023-04-24T01:56:41;10.30;99.90
25923;DHT22;13725;51.170;4.442;2023-04-24T01:59:10;10.20;99.90
25923;DHT22;13725;51.170;4.442;2023-04-24T02:01:37;10.10;99.90
25923;DHT22;13725;51.170;4.442;2023-04-24T02:04:04;10.10;99.90
25923;DHT22;13725;51.170;4.442;2023-04-24T02:06:30;10.20;99.90
25923;DHT22;13725;51.170;4.442;2023-04-24T02:08:58;10.20;99.90
25923;DHT22;13725;51.170;4.442;2023-04-24T02:11:24;10.20;99.90
25923;DHT22;13725;51.170;4.442;2023-04-24T02:13:50;10.20;99.90
25923;DHT22;13725;51.170;4.442;2023-04-24T02:16:17;10.30;99.90
25923;DHT22;13725;51.170;4.442;2023-04-24T02:18:43;10.40;99.90
25923;DHT22;13725;51.170;4.442;2023-04-24T02:21:09;10.30;99.90
25923;DHT22;13725;51.170;4.442;2023-04-24T02:23:35;10.40;99.90
25923;DHT22;13725;51.170;4.442;2023-04-24T02:26:01;10.20;99.90
25923;DHT22;13725;51.170;4.442;2023-04-24T02:28:27;10.30;99.90
25923;DHT22;13725;51.170;4.442;2023-04-24T02:30:52;10.30;99.90
25923;DHT22;13725;51.170;4.442;2023-04-24T02:33:21;10.20;99.90
25923;DHT22;13725;51.170;4.442;2023-04-24T02:35:47;10.10;99.90
25923;DHT22;13725;51.170;4.442;2023-04-24T02:38:13;10.10;99.90
25923;DHT22;13725;51.170;4.442;2023-04-24T02:40:39;10.10;99.90
25923;DHT22;13725;51.170;4.442;2023-04-24T02:43:04;10.10;99.90
25923;DHT22;13725;51.170;4.442;2023-04-24T02:45:30;9.90;99.90
25923;DHT22;13725;51.170;4.442;2023-04-24T02:47:56;9.90;99.90
25923;DHT22;13725;51.170;4.442;2023-04-24T02:50:22;9.90;99.90
25923;DHT22;13725;51.170;4.442;2023-04-24T02:52:47;9.80;99.90
25923;DHT22;13725;51.170;4.442;2023-04-24T02:55:13;9.80;99.90
25923;DHT22;13725;51.170;4.442;2023-04-24T02:57:39;9.60;99.90
25923;DHT22;13725;51.170;4.442;2023-04-24T03:00:05;9.70;99.90
25923;DHT22;13725;51.170;4.442;2023-04-24T03:02:32;9.70;99.90
25923;DHT22;13725;51.170;4.442;2023-04-24T03:04:59;9.80;99.90
25923;DHT22;13725;51.170;4.442;2023-04-24T03:07:25;9.80;99.90
25923;DHT22;13725;51.170;4.442;2023-04-24T03:09:51;9.70;99.90
25923;DHT22;13725;51.170;4.442;2023-04-24T03:12:16;9.60;99.90
25923;DHT22;13725;51.170;4.442;2023-04-24T03:14:43;9.60;99.90
25923;DHT22;13725;51.170;4.442;2023-04-24T03:17:09;9.60;99.90
25923;DHT22;13725;51.170;4.442;2023-04-24T03:19:35;9.50;99.90
25923;DHT22;13725;51.170;4.442;2023-04-24T03:22:08;9.50;99.90
25923;DHT22;13725;51.170;4.442;2023-04-24T03:24:35;9.50;99.90
25923;DHT22;13725;51.170;4.442;2023-04-24T03:27:01;9.50;99.90
25923;DHT22;13725;51.170;4.442;2023-04-24T03:29:44;9.50;99.90
25923;DHT22;13725;51.170;4.442;2023-04-24T03:32:10;9.60;99.90
25923;DHT22;13725;51.170;4.442;2023-04-24T03:34:37;9.60;99.90
25923;DHT22;13725;51.170;4.442;2023-04-24T03:37:03;9.60;99.90
25923;DHT22;13725;51.170;4.442;2023-04-24T03:39:30;9.70;99.90
25923;DHT22;13725;51.170;4.442;2023-04-24T03:41:56;9.60;99.90
25923;DHT22;13725;51.170;4.442;2023-04-24T03:44:29;9.60;99.90
25923;DHT22;13725;51.170;4.442;2023-04-24T03:46:55;9.50;99.90
25923;DHT22;13725;51.170;4.442;2023-04-24T03:49:23;9.50;99.90
25923;DHT22;13725;51.170;4.442;2023-04-24T03:51:48;9.50;99.90
25923;DHT22;13725;51.170;4.442;2023-04-24T03:54:21;9.50;99.90
25923;DHT22;13725;51.170;4.442;2023-04-24T03:56:48;9.50;99.90
25923;DHT22;13725;51.170;4.442;2023-04-24T03:59:15;9.50;99.90
25923;DHT22;13725;51.170;4.442;2023-04-24T04:01:44;9.50;99.90
25923;DHT22;13725;51.170;4.442;2023-04-24T04:04:13;9.40;99.90
25923;DHT22;13725;51.170;4.442;2023-04-24T04:06:40;9.40;99.90
25923;DHT22;13725;51.170;4.442;2023-04-24T04:09:06;9.30;99.90
25923;DHT22;13725;51.170;4.442;2023-04-24T04:11:32;9.30;99.90
25923;DHT22;13725;51.170;4.442;2023-04-24T04:13:58;9.30;99.90
25923;DHT22;13725;51.170;4.442;2023-04-24T04:16:24;9.30;99.90
25923;DHT22;13725;51.170;4.442;2023-04-24T04:18:56;9.40;99.90
25923;DHT22;13725;51.170;4.442;2023-04-24T04:21:22;9.40;99.90
25923;DHT22;13725;51.170;4.442;2023-04-24T04:23:50;9.30;99.90
25923;DHT22;13725;51.170;4.442;2023-04-24T04:26:25;9.30;99.90
25923;DHT22;13725;51.170;4.442;2023-04-24T04:29:11;9.30;99.90
25923;DHT22;13725;51.170;4.442;2023-04-24T04:31:42;9.20;99.90
25923;DHT22;13725;51.170;4.442;2023-04-24T04:34:11;9.20;99.90
25923;DHT22;13725;51.170;4.442;2023-04-24T04:36:38;9.20;99.90
25923;DHT22;13725;51.170;4.442;2023-04-24T04:39:34;9.10;99.90
25923;DHT22;13725;51.170;4.442;2023-04-24T04:42:06;9.10;99.90
25923;DHT22;13725;51.170;4.442;2023-04-24T04:44:39;9.20;99.90
25923;DHT22;13725;51.170;4.442;2023-04-24T04:47:06;9.20;99.90
25923;DHT22;13725;51.170;4.442;2023-04-24T04:49:35;9.20;99.90
25923;DHT22;13725;51.170;4.442;2023-04-24T04:52:02;9.20;99.90
25923;DHT22;13725;51.170;4.442;2023-04-24T04:54:28;9.10;99.90
25923;DHT22;13725;51.170;4.442;2023-04-24T04:56:55;9.20;99.90
25923;DHT22;13725;51.170;4.442;2023-04-24T04:59:22;9.10;99.90
25923;DHT22;13725;51.170;4.442;2023-04-24T05:01:54;9.00;99.90
25923;DHT22;13725;51.170;4.442;2023-04-24T05:04:20;9.00;99.90
25923;DHT22;13725;51.170;4.442;2023-04-24T05:06:46;9.00;99.90
25923;DHT22;13725;51.170;4.442;2023-04-24T05:09:13;9.00;99.90
25923;DHT22;13725;51.170;4.442;2023-04-24T05:11:50;8.90;99.90
25923;DHT22;13725;51.170;4.442;2023-04-24T05:14:16;8.90;99.90
25923;DHT22;13725;51.170;4.442;2023-04-24T05:16:43;8.90;99.90
25923;DHT22;13725;51.170;4.442;2023-04-24T05:19:10;8.90;99.90
25923;DHT22;13725;51.170;4.442;2023-04-24T05:21:41;8.90;99.90
25923;DHT22;13725;51.170;4.442;2023-04-24T05:24:07;9.00;99.90
25923;DHT22;13725;51.170;4.442;2023-04-24T05:27:05;9.00;99.90
25923;DHT22;13725;51.170;4.442;2023-04-24T05:29:38;8.90;99.90
25923;DHT22;13725;51.170;4.442;2023-04-24T05:32:05;8.90;99.90
25923;DHT22;13725;51.170;4.442;2023-04-24T05:34:31;8.80;99.90
25923;DHT22;13725;51.170;4.442;2023-04-24T05:36:57;8.80;99.90
25923;DHT22;13725;51.170;4.442;2023-04-24T05:39:23;8.70;99.90
25923;DHT22;13725;51.170;4.442;2023-04-24T05:41:51;8.80;99.90
25923;DHT22;13725;51.170;4.442;2023-04-24T05:44:17;8.70;99.90
25923;DHT22;13725;51.170;4.442;2023-04-24T05:46:42;8.70;99.90
25923;DHT22;13725;51.170;4.442;2023-04-24T05:49:10;8.70;99.90
25923;DHT22;13725;51.170;4.442;2023-04-24T05:51:35;8.70;99.90
25923;DHT22;13725;51.170;4.442;2023-04-24T05:54:01;8.70;99.90
25923;DHT22;13725;51.170;4.442;2023-04-24T05:56:29;8.70;99.90
25923;DHT22;13725;51.170;4.442;2023-04-24T05:58:55;8.80;99.90
25923;DHT22;13725;51.170;4.442;2023-04-24T06:01:21;8.90;99.90
25923;DHT22;13725;51.170;4.442;2023-04-24T06:03:54;8.90;99.90
25923;DHT22;13725;51.170;4.442;2023-04-24T06:06:20;9.00;99.90
25923;DHT22;13725;51.170;4.442;2023-04-24T06:08:46;9.10;99.90
25923;DHT22;13725;51.170;4.442;2023-04-24T06:11:12;9.10;99.90
25923;DHT22;13725;51.170;4.442;2023-04-24T06:13:38;9.10;99.90
25923;DHT22;13725;51.170;4.442;2023-04-24T06:16:30;9.20;99.90
25923;DHT22;13725;51.170;4.442;2023-04-24T06:19:02;9.30;99.90
25923;DHT22;13725;51.170;4.442;2023-04-24T06:21:29;9.30;99.90
25923;DHT22;13725;51.170;4.442;2023-04-24T06:23:54;9.30;99.90
25923;DHT22;13725;51.170;4.442;2023-04-24T06:26:21;9.30;99.90
25923;DHT22;13725;51.170;4.442;2023-04-24T06:28:47;9.30;99.90
25923;DHT22;13725;51.170;4.442;2023-04-24T06:31:13;9.40;99.90
25923;DHT22;13725;51.170;4.442;2023-04-24T06:33:40;9.40;99.90
25923;DHT22;13725;51.170;4.442;2023-04-24T06:36:06;9.40;99.90
25923;DHT22;13725;51.170;4.442;2023-04-24T06:38:32;9.40;99.90
25923;DHT22;13725;51.170;4.442;2023-04-24T06:40:57;9.40;99.90
25923;DHT22;13725;51.170;4.442;2023-04-24T06:43:23;9.50;99.90
25923;DHT22;13725;51.170;4.442;2023-04-24T06:45:49;9.50;99.90
25923;DHT22;13725;51.170;4.442;2023-04-24T06:48:15;9.50;99.90
25923;DHT22;13725;51.170;4.442;2023-04-24T06:50:41;9.50;99.90
25923;DHT22;13725;51.170;4.442;2023-04-24T06:53:07;9.60;99.90
25923;DHT22;13725;51.170;4.442;2023-04-24T06:55:33;9.60;99.90
25923;DHT22;13725;51.170;4.442;2023-04-24T06:57:58;9.70;99.90
25923;DHT22;13725;51.170;4.442;2023-04-24T07:00:24;9.70;99.90
25923;DHT22;13725;51.170;4.442;2023-04-24T07:02:50;9.70;99.90
25923;DHT22;13725;51.170;4.442;2023-04-24T07:05:16;9.60;99.90
25923;DHT22;13725;51.170;4.442;2023-04-24T07:07:47;9.60;99.90
25923;DHT22;13725;51.170;4.442;2023-04-24T07:10:13;9.50;99.90
25923;DHT22;13725;51.170;4.442;2023-04-24T07:12:39;9.50;99.90
25923;DHT22;13725;51.170;4.442;2023-04-24T07:15:06;9.50;99.90
25923;DHT22;13725;51.170;4.442;2023-04-24T07:17:34;9.50;99.90
25923;DHT22;13725;51.170;4.442;2023-04-24T07:20:00;9.50;99.90
25923;DHT22;13725;51.170;4.442;2023-04-24T07:22:26;9.60;99.90
25923;DHT22;13725;51.170;4.442;2023-04-24T07:24:52;9.80;99.90
25923;DHT22;13725;51.170;4.442;2023-04-24T07:27:17;9.80;99.90
25923;DHT22;13725;51.170;4.442;2023-04-24T07:29:43;9.80;99.90
25923;DHT22;13725;51.170;4.442;2023-04-24T07:32:09;9.90;99.90
25923;DHT22;13725;51.170;4.442;2023-04-24T07:34:35;10.00;99.90
25923;DHT22;13725;51.170;4.442;2023-04-24T07:37:01;10.10;99.90
25923;DHT22;13725;51.170;4.442;2023-04-24T07:39:27;10.30;99.90
25923;DHT22;13725;51.170;4.442;2023-04-24T07:41:54;10.40;99.90
25923;DHT22;13725;51.170;4.442;2023-04-24T07:44:20;10.60;99.90
25923;DHT22;13725;51.170;4.442;2023-04-24T07:46:45;10.70;99.90
25923;DHT22;13725;51.170;4.442;2023-04-24T07:49:12;11.00;99.90
25923;DHT22;13725;51.170;4.442;2023-04-24T07:51:37;11.00;99.90
25923;DHT22;13725;51.170;4.442;2023-04-24T07:54:05;11.10;99.90
25923;DHT22;13725;51.170;4.442;2023-04-24T07:56:34;11.60;99.90
25923;DHT22;13725;51.170;4.442;2023-04-24T07:59:00;12.40;99.90
25923;DHT22;13725;51.170;4.442;2023-04-24T08:01:26;13.10;99.90
25923;DHT22;13725;51.170;4.442;2023-04-24T08:03:52;14.30;99.90
25923;DHT22;13725;51.170;4.442;2023-04-24T08:06:18;14.60;99.90
25923;DHT22;13725;51.170;4.442;2023-04-24T08:08:44;14.50;99.90
25923;DHT22;13725;51.170;4.442;2023-04-24T08:11:09;13.70;99.90
25923;DHT22;13725;51.170;4.442;2023-04-24T08:13:35;13.00;99.90
25923;DHT22;13725;51.170;4.442;2023-04-24T08:16:01;12.50;99.90
25923;DHT22;13725;51.170;4.442;2023-04-24T08:18:27;12.00;99.90
25923;DHT22;13725;51.170;4.442;2023-04-24T08:20:53;11.50;99.90
25923;DHT22;13725;51.170;4.442;2023-04-24T08:23:19;11.50;99.90
25923;DHT22;13725;51.170;4.442;2023-04-24T08:25:45;11.40;99.90
25923;DHT22;13725;51.170;4.442;2023-04-24T08:28:10;11.50;99.90
25923;DHT22;13725;51.170;4.442;2023-04-24T08:30:36;11.70;99.90
25923;DHT22;13725;51.170;4.442;2023-04-24T08:33:04;12.20;99.90
25923;DHT22;13725;51.170;4.442;2023-04-24T08:35:29;12.20;99.90
25923;DHT22;13725;51.170;4.442;2023-04-24T08:37:55;12.20;99.90
25923;DHT22;13725;51.170;4.442;2023-04-24T08:40:27;12.20;99.90
25923;DHT22;13725;51.170;4.442;2023-04-24T08:42:56;12.30;99.90
25923;DHT22;13725;51.170;4.442;2023-04-24T08:45:23;12.40;99.90
25923;DHT22;13725;51.170;4.442;2023-04-24T08:47:49;12.40;99.90
25923;DHT22;13725;51.170;4.442;2023-04-24T08:50:15;12.80;99.90
25923;DHT22;13725;51.170;4.442;2023-04-24T08:52:42;13.80;99.90
25923;DHT22;13725;51.170;4.442;2023-04-24T08:55:08;15.20;99.90
25923;DHT22;13725;51.170;4.442;2023-04-24T08:57:36;16.10;99.90
25923;DHT22;13725;51.170;4.442;2023-04-24T09:00:04;17.10;99.90
25923;DHT22;13725;51.170;4.442;2023-04-24T09:02:31;17.00;99.90
25923;DHT22;13725;51.170;4.442;2023-04-24T09:05:00;15.70;99.90
25923;DHT22;13725;51.170;4.442;2023-04-24T09:07:27;15.10;99.90
25923;DHT22;13725;51.170;4.442;2023-04-24T09:09:55;14.70;99.90
25923;DHT22;13725;51.170;4.442;2023-04-24T09:12:21;13.80;99.90
25923;DHT22;13725;51.170;4.442;2023-04-24T09:14:48;13.20;99.90
25923;DHT22;13725;51.170;4.442;2023-04-24T09:17:15;12.70;99.90
25923;DHT22;13725;51.170;4.442;2023-04-24T09:19:41;12.10;99.90
25923;DHT22;13725;51.170;4.442;2023-04-24T09:22:10;12.00;99.90
25923;DHT22;13725;51.170;4.442;2023-04-24T09:24:36;12.20;99.90
25923;DHT22;13725;51.170;4.442;2023-04-24T09:27:02;12.50;99.90
25923;DHT22;13725;51.170;4.442;2023-04-24T09:29:29;13.00;99.90
25923;DHT22;13725;51.170;4.442;2023-04-24T09:31:55;13.20;99.90
25923;DHT22;13725;51.170;4.442;2023-04-24T09:34:23;13.20;99.90
25923;DHT22;13725;51.170;4.442;2023-04-24T09:36:49;13.40;99.90
25923;DHT22;13725;51.170;4.442;2023-04-24T09:39:16;13.30;99.90
25923;DHT22;13725;51.170;4.442;2023-04-24T09:41:52;13.80;99.90
25923;DHT22;13725;51.170;4.442;2023-04-24T09:44:20;16.40;99.90
25923;DHT22;13725;51.170;4.442;2023-04-24T09:46:59;19.00;99.90
25923;DHT22;13725;51.170;4.442;2023-04-24T09:49:30;21.90;99.90
25923;DHT22;13725;51.170;4.442;2023-04-24T09:52:05;22.30;99.90
25923;DHT22;13725;51.170;4.442;2023-04-24T09:54:31;21.40;99.90
25923;DHT22;13725;51.170;4.442;2023-04-24T09:56:57;19.80;99.90
25923;DHT22;13725;51.170;4.442;2023-04-24T09:59:23;18.50;99.90
25923;DHT22;13725;51.170;4.442;2023-04-24T10:01:49;17.40;99.90
25923;DHT22;13725;51.170;4.442;2023-04-24T10:04:19;18.10;99.90
25923;DHT22;13725;51.170;4.442;2023-04-24T10:06:46;18.00;99.90
25923;DHT22;13725;51.170;4.442;2023-04-24T10:09:15;19.30;99.90
25923;DHT22;13725;51.170;4.442;2023-04-24T10:11:44;21.90;99.90
25923;DHT22;13725;51.170;4.442;2023-04-24T10:14:13;24.10;99.90
25923;DHT22;13725;51.170;4.442;2023-04-24T10:16:41;25.80;99.00
25923;DHT22;13725;51.170;4.442;2023-04-24T10:19:07;25.50;96.10
25923;DHT22;13725;51.170;4.442;2023-04-24T10:21:34;25.60;95.10
25923;DHT22;13725;51.170;4.442;2023-04-24T10:24:01;24.80;94.20
25923;DHT22;13725;51.170;4.442;2023-04-24T10:26:29;23.80;95.20
25923;DHT22;13725;51.170;4.442;2023-04-24T10:28:57;22.70;95.00
25923;DHT22;13725;51.170;4.442;2023-04-24T10:31:24;22.00;97.20
25923;DHT22;13725;51.170;4.442;2023-04-24T10:33:51;21.00;98.80
25923;DHT22;13725;51.170;4.442;2023-04-24T10:36:18;20.90;99.90
25923;DHT22;13725;51.170;4.442;2023-04-24T10:38:46;20.50;99.90
25923;DHT22;13725;51.170;4.442;2023-04-24T10:41:13;20.00;99.90
25923;DHT22;13725;51.170;4.442;2023-04-24T10:43:45;19.60;99.90
25923;DHT22;13725;51.170;4.442;2023-04-24T10:46:19;19.10;99.90
25923;DHT22;13725;51.170;4.442;2023-04-24T10:48:54;18.10;99.90
25923;DHT22;13725;51.170;4.442;2023-04-24T10:51:22;18.30;99.90
25923;DHT22;13725;51.170;4.442;2023-04-24T10:53:51;18.10;99.90
25923;DHT22;13725;51.170;4.442;2023-04-24T10:56:17;17.80;99.90
25923;DHT22;13725;51.170;4.442;2023-04-24T11:01:30;18.60;99.90
25923;DHT22;13725;51.170;4.442;2023-04-24T11:03:59;19.10;99.90
25923;DHT22;13725;51.170;4.442;2023-04-24T11:06:36;19.80;99.90
25923;DHT22;13725;51.170;4.442;2023-04-24T11:09:06;18.90;99.90
25923;DHT22;13725;51.170;4.442;2023-04-24T11:11:34;18.10;99.90
25923;DHT22;13725;51.170;4.442;2023-04-24T11:14:00;18.00;99.90
25923;DHT22;13725;51.170;4.442;2023-04-24T11:19:08;19.20;99.90
25923;DHT22;13725;51.170;4.442;2023-04-24T11:22:01;19.40;99.90
25923;DHT22;13725;51.170;4.442;2023-04-24T11:29:59;23.30;99.90
25923;DHT22;13725;51.170;4.442;2023-04-24T11:32:46;25.10;93.80
25923;DHT22;13725;51.170;4.442;2023-04-24T11:35:17;24.10;93.00
25923;DHT22;13725;51.170;4.442;2023-04-24T11:37:45;23.90;93.50
25923;DHT22;13725;51.170;4.442;2023-04-24T11:40:13;24.40;90.20
25923;DHT22;13725;51.170;4.442;2023-04-24T11:42:45;24.10;90.20
25923;DHT22;13725;51.170;4.442;2023-04-24T11:45:14;22.40;91.30
25923;DHT22;13725;51.170;4.442;2023-04-24T11:47:41;21.10;92.30
25923;DHT22;13725;51.170;4.442;2023-04-24T11:50:09;19.90;94.10
25923;DHT22;13725;51.170;4.442;2023-04-24T11:52:41;19.50;97.50
25923;DHT22;13725;51.170;4.442;2023-04-24T11:57:46;19.60;99.90
25923;DHT22;13725;51.170;4.442;2023-04-24T12:00:23;19.30;99.90
25923;DHT22;13725;51.170;4.442;2023-04-24T12:02:49;19.20;99.90
25923;DHT22;13725;51.170;4.442;2023-04-24T12:05:24;19.10;99.90
25923;DHT22;13725;51.170;4.442;2023-04-24T12:07:51;20.40;99.90
25923;DHT22;13725;51.170;4.442;2023-04-24T12:10:25;20.70;98.90
25923;DHT22;13725;51.170;4.442;2023-04-24T12:12:52;20.80;99.90
25923;DHT22;13725;51.170;4.442;2023-04-24T12:15:19;20.40;99.90
25923;DHT22;13725;51.170;4.442;2023-04-24T12:17:46;19.90;99.90
25923;DHT22;13725;51.170;4.442;2023-04-24T12:20:13;19.70;99.90
25923;DHT22;13725;51.170;4.442;2023-04-24T12:22:48;19.30;99.40
25923;DHT22;13725;51.170;4.442;2023-04-24T12:25:15;18.60;98.60
25923;DHT22;13725;51.170;4.442;2023-04-24T12:27:42;17.90;99.80
25923;DHT22;13725;51.170;4.442;2023-04-24T12:30:14;17.80;99.90
25923;DHT22;13725;51.170;4.442;2023-04-24T12:32:48;17.60;99.90
25923;DHT22;13725;51.170;4.442;2023-04-24T12:35:24;17.70;99.90
25923;DHT22;13725;51.170;4.442;2023-04-24T12:37:51;17.70;99.90
25923;DHT22;13725;51.170;4.442;2023-04-24T12:40:17;17.90;99.90
25923;DHT22;13725;51.170;4.442;2023-04-24T12:42:48;17.90;99.90
25923;DHT22;13725;51.170;4.442;2023-04-24T12:45:14;17.80;99.90
25923;DHT22;13725;51.170;4.442;2023-04-24T12:47:41;17.80;99.90
25923;DHT22;13725;51.170;4.442;2023-04-24T12:50:09;17.50;99.90
25923;DHT22;13725;51.170;4.442;2023-04-24T12:52:36;17.50;99.90
25923;DHT22;13725;51.170;4.442;2023-04-24T12:55:02;18.50;99.90
25923;DHT22;13725;51.170;4.442;2023-04-24T12:57:29;19.60;99.90
25923;DHT22;13725;51.170;4.442;2023-04-24T12:59:57;19.90;99.90
25923;DHT22;13725;51.170;4.442;2023-04-24T13:02:24;20.40;99.90
25923;DHT22;13725;51.170;4.442;2023-04-24T13:04:51;20.40;99.90
25923;DHT22;13725;51.170;4.442;2023-04-24T13:07:17;20.00;99.90
25923;DHT22;13725;51.170;4.442;2023-04-24T13:09:44;19.80;99.90
25923;DHT22;13725;51.170;4.442;2023-04-24T13:12:11;20.00;99.90
25923;DHT22;13725;51.170;4.442;2023-04-24T13:14:37;20.30;99.90
25923;DHT22;13725;51.170;4.442;2023-04-24T13:17:03;21.70;99.90
25923;DHT22;13725;51.170;4.442;2023-04-24T13:19:30;22.60;97.10
25923;DHT22;13725;51.170;4.442;2023-04-24T13:22:00;23.40;93.50
25923;DHT22;13725;51.170;4.442;2023-04-24T13:24:26;22.60;92.10
25923;DHT22;13725;51.170;4.442;2023-04-24T13:26:53;22.30;93.50
25923;DHT22;13725;51.170;4.442;2023-04-24T13:29:19;22.50;91.10
25923;DHT22;13725;51.170;4.442;2023-04-24T13:31:46;22.60;91.90
25923;DHT22;13725;51.170;4.442;2023-04-24T13:34:13;22.20;92.70
25923;DHT22;13725;51.170;4.442;2023-04-24T13:36:39;21.30;93.90
25923;DHT22;13725;51.170;4.442;2023-04-24T13:39:05;21.20;96.40
25923;DHT22;13725;51.170;4.442;2023-04-24T13:41:32;21.90;95.50
25923;DHT22;13725;51.170;4.442;2023-04-24T13:43:58;22.00;94.50
25923;DHT22;13725;51.170;4.442;2023-04-24T13:46:24;22.10;93.80
25923;DHT22;13725;51.170;4.442;2023-04-24T13:48:50;22.10;94.30
25923;DHT22;13725;51.170;4.442;2023-04-24T13:51:16;21.90;93.60
25923;DHT22;13725;51.170;4.442;2023-04-24T13:53:42;20.80;94.80
25923;DHT22;13725;51.170;4.442;2023-04-24T13:56:08;20.70;94.90
25923;DHT22;13725;51.170;4.442;2023-04-24T13:58:35;21.30;97.00
25923;DHT22;13725;51.170;4.442;2023-04-24T14:01:02;21.80;94.60
25923;DHT22;13725;51.170;4.442;2023-04-24T14:03:29;21.20;93.10
25923;DHT22;13725;51.170;4.442;2023-04-24T14:05:55;20.60;95.40
25923;DHT22;13725;51.170;4.442;2023-04-24T14:08:21;20.30;96.00
25923;DHT22;13725;51.170;4.442;2023-04-24T14:10:47;19.80;97.50
25923;DHT22;13725;51.170;4.442;2023-04-24T14:13:13;19.70;98.70
25923;DHT22;13725;51.170;4.442;2023-04-24T14:15:39;19.50;98.30
25923;DHT22;13725;51.170;4.442;2023-04-24T14:18:05;19.20;98.90
25923;DHT22;13725;51.170;4.442;2023-04-24T14:20:30;19.10;99.90
25923;DHT22;13725;51.170;4.442;2023-04-24T14:22:56;19.00;99.90
25923;DHT22;13725;51.170;4.442;2023-04-24T14:25:25;18.80;99.90
25923;DHT22;13725;51.170;4.442;2023-04-24T14:27:52;18.40;99.90
25923;DHT22;13725;51.170;4.442;2023-04-24T14:30:18;18.00;99.90
25923;DHT22;13725;51.170;4.442;2023-04-24T14:32:44;17.60;99.90
25923;DHT22;13725;51.170;4.442;2023-04-24T14:35:10;17.30;99.90
25923;DHT22;13725;51.170;4.442;2023-04-24T14:37:36;17.20;99.90
25923;DHT22;13725;51.170;4.442;2023-04-24T14:40:04;17.20;99.90
25923;DHT22;13725;51.170;4.442;2023-04-24T14:42:32;17.20;99.90
25923;DHT22;13725;51.170;4.442;2023-04-24T14:44:59;17.10;99.90
25923;DHT22;13725;51.170;4.442;2023-04-24T14:47:25;16.90;99.90
25923;DHT22;13725;51.170;4.442;2023-04-24T14:49:51;16.60;99.90
25923;DHT22;13725;51.170;4.442;2023-04-24T14:52:18;16.60;99.90
25923;DHT22;13725;51.170;4.442;2023-04-24T14:54:44;16.70;99.90
25923;DHT22;13725;51.170;4.442;2023-04-24T14:57:10;16.60;99.90
25923;DHT22;13725;51.170;4.442;2023-04-24T14:59:36;16.70;99.90
25923;DHT22;13725;51.170;4.442;2023-04-24T15:02:02;16.90;99.90
25923;DHT22;13725;51.170;4.442;2023-04-24T15:04:28;17.10;99.90
25923;DHT22;13725;51.170;4.442;2023-04-24T15:06:54;17.30;99.90
25923;DHT22;13725;51.170;4.442;2023-04-24T15:09:24;17.20;99.90
25923;DHT22;13725;51.170;4.442;2023-04-24T15:11:51;17.10;99.90
25923;DHT22;13725;51.170;4.442;2023-04-24T15:14:18;17.00;99.90
25923;DHT22;13725;51.170;4.442;2023-04-24T15:16:44;16.80;99.90
25923;DHT22;13725;51.170;4.442;2023-04-24T15:19:10;16.50;99.90
25923;DHT22;13725;51.170;4.442;2023-04-24T15:21:37;16.10;99.90
25923;DHT22;13725;51.170;4.442;2023-04-24T15:24:04;16.00;99.90
25923;DHT22;13725;51.170;4.442;2023-04-24T15:26:30;16.10;99.90
25923;DHT22;13725;51.170;4.442;2023-04-24T15:28:56;16.20;99.90
25923;DHT22;13725;51.170;4.442;2023-04-24T15:31:21;16.10;99.90
25923;DHT22;13725;51.170;4.442;2023-04-24T15:33:49;16.10;99.90
25923;DHT22;13725;51.170;4.442;2023-04-24T15:36:16;16.00;99.90
25923;DHT22;13725;51.170;4.442;2023-04-24T15:38:43;15.90;99.90
25923;DHT22;13725;51.170;4.442;2023-04-24T15:41:09;15.90;99.90
25923;DHT22;13725;51.170;4.442;2023-04-24T15:43:35;15.70;99.90
25923;DHT22;13725;51.170;4.442;2023-04-24T15:46:04;15.70;99.90
25923;DHT22;13725;51.170;4.442;2023-04-24T15:48:31;15.60;99.90
25923;DHT22;13725;51.170;4.442;2023-04-24T15:50:57;15.80;99.90